Time;durP1;ratioP1;P1;durP2;ratioP2;P2;SDS_P1;SDS_P2;PMS_P1;PMS_P2;Temp;Humidity;BMP_temperature;BMP_pressure;BME280_temperature;BME280_humidity;BME280_pressure;Samples;Min_cycle;Max_cycle;Signal;HPM_P1;HPM_P2
2022/10/17 00:01:56;;;;;;;11.35;8.85;;;;;;;15.28;88.50;101326.81;3609217;39;20298;-60
2022/10/17 00:04:21;;;;;;;9.63;8.57;;;;;;;15.31;88.97;101323.88;3605123;39;20047;-61
2022/10/17 00:06:47;;;;;;;10.43;8.65;;;;;;;15.33;88.36;101327.34;3607770;39;20054;-61
2022/10/17 00:09:13;;;;;;;9.65;8.68;;;;;;;15.37;88.73;101323.41;3606490;39;20075;-60
2022/10/17 00:11:39;;;;;;;9.75;8.80;;;;;;;15.40;88.66;101331.31;3605953;39;20075;-61
2022/10/17 00:14:04;;;;;;;9.73;8.82;;;;;;;15.43;88.49;101332.94;3608256;39;20091;-61
2022/10/17 00:16:38;;;;;;;9.63;8.63;;;;;;;15.44;88.04;101330.09;3609780;39;20067;-61
2022/10/17 00:19:05;;;;;;;10.13;8.70;;;;;;;15.44;88.36;101327.38;3607680;39;20066;-60
2022/10/17 00:21:33;;;;;;;9.90;7.93;;;;;;;15.42;86.43;101325.81;3605166;39;20110;-61
2022/10/17 00:24:00;;;;;;;8.98;8.07;;;;;;;15.39;86.37;101324.19;3608650;39;20066;-61
2022/10/17 00:26:28;;;;;;;11.55;8.45;;;;;;;15.33;86.14;101320.06;3607128;39;20401;-60
2022/10/17 00:28:54;;;;;;;10.48;8.57;;;;;;;15.30;87.00;101314.03;3605064;39;20099;-60
2022/10/17 00:31:23;;;;;;;10.88;8.18;;;;;;;15.30;87.24;101314.03;3607766;39;20400;-60
2022/10/17 00:33:49;;;;;;;12.65;8.52;;;;;;;15.26;87.05;101309.81;3599873;39;20047;-60
2022/10/17 00:36:17;;;;;;;10.00;9.00;;;;;;;15.28;87.01;101306.00;3607916;39;20119;-60
2022/10/17 00:38:46;;;;;;;12.35;9.23;;;;;;;15.27;88.00;101308.81;3609516;39;20390;-61
2022/10/17 00:41:15;;;;;;;10.73;9.25;;;;;;;15.27;88.07;101308.81;3610709;39;20305;-60
2022/10/17 00:44:03;;;;;;;11.57;10.15;;;;;;;15.27;88.43;101306.13;3609265;39;20470;-60
2022/10/17 00:46:35;;;;;;;11.70;9.27;;;;;;;15.26;88.81;101307.09;3609332;39;20069;-61
2022/10/17 00:49:09;;;;;;;14.38;10.27;;;;;;;15.28;88.67;101306.00;3608299;39;20051;-61
2022/10/17 00:51:51;;;;;;;12.73;9.93;;;;;;;15.29;89.00;101301.47;3608475;39;20066;-61
2022/10/17 00:54:24;;;;;;;11.10;9.68;;;;;;;15.31;88.69;101304.91;3608973;39;20051;-60
2022/10/17 00:56:51;;;;;;;11.57;10.40;;;;;;;15.32;89.01;101301.25;3607636;39;20070;-61
2022/10/17 00:59:21;;;;;;;11.82;10.45;;;;;;;15.32;88.81;101307.53;3609359;39;20095;-61
2022/10/17 01:02:04;;;;;;;11.88;10.60;;;;;;;15.35;89.79;101306.44;3611048;39;20087;-61
2022/10/17 01:04:30;;;;;;;12.27;10.63;;;;;;;15.43;90.09;101313.97;3608804;39;20059;-61
2022/10/17 01:06:55;;;;;;;12.80;11.20;;;;;;;15.46;90.57;101301.06;3610895;39;20137;-61
2022/10/17 01:09:23;;;;;;;11.40;10.40;;;;;;;15.54;91.06;101309.50;3601018;39;20151;-61
2022/10/17 01:12:14;;;;;;;12.68;10.95;;;;;;;15.61;90.21;101322.59;3606830;39;20054;-61
2022/10/17 01:15:03;;;;;;;11.50;10.30;;;;;;;15.61;88.69;101307.19;3609257;39;20283;-61
2022/10/17 01:18:03;;;;;;;11.88;10.68;;;;;;;15.62;88.90;101302.63;3610057;39;20127;-60
2022/10/17 01:21:11;;;;;;;11.57;10.20;;;;;;;15.66;89.50;101309.53;3608936;39;20067;-61
2022/10/17 01:24:28;;;;;;;11.95;9.70;;;;;;;15.64;88.91;101311.50;3608507;39;20390;-61
2022/10/17 01:27:32;;;;;;;13.05;9.68;;;;;;;15.65;89.04;101302.41;3611020;39;20054;-60
2022/10/17 01:30:33;;;;;;;10.63;9.52;;;;;;;15.65;89.25;101302.41;3608812;39;20095;-61
2022/10/17 01:33:49;;;;;;;11.52;10.32;;;;;;;15.70;89.19;101300.25;3607319;39;20136;-61
2022/10/17 01:36:50;;;;;;;11.75;10.52;;;;;;;15.72;89.76;101303.69;3608650;39;20102;-61
2022/10/17 01:39:38;;;;;;;13.88;10.77;;;;;;;15.74;89.32;101299.03;3610013;39;20051;-61
2022/10/17 01:42:26;;;;;;;11.98;10.13;;;;;;;15.77;89.90;101301.50;3610753;39;20050;-61
2022/10/17 01:45:15;;;;;;;12.38;10.40;;;;;;;15.80;89.42;101294.97;3609604;39;20067;-60
2022/10/17 01:47:42;;;;;;;11.15;9.98;;;;;;;15.81;89.75;101294.84;3609659;39;20103;-61
2022/10/17 01:50:24;;;;;;;11.43;10.23;;;;;;;15.76;89.22;101284.38;3609495;39;20104;-59
2022/10/17 01:53:08;;;;;;;11.18;9.90;;;;;;;15.82;89.07;101293.00;3608507;39;20054;-60
2022/10/17 01:55:43;;;;;;;14.90;10.82;;;;;;;15.79;88.34;101294.09;3606995;39;20039;-61
2022/10/17 01:58:20;;;;;;;13.70;10.20;;;;;;;15.78;89.38;101298.66;3606497;39;20059;-61
2022/10/17 02:00:49;;;;;;;13.57;9.93;;;;;;;15.70;88.76;101290.25;3608106;39;20269;-61
2022/10/17 02:03:20;;;;;;;12.25;11.05;;;;;;;15.77;88.26;101296.94;3606230;39;20059;-61
2022/10/17 02:05:47;;;;;;;12.82;10.00;;;;;;;15.77;89.35;101286.09;3609448;39;20051;-61
2022/10/17 02:08:24;;;;;;;11.05;9.85;;;;;;;15.65;88.81;101264.44;3608429;39;20055;-60
2022/10/17 02:11:18;;;;;;;11.40;9.95;;;;;;;15.75;88.95;101281.75;3609236;39;20054;-61
2022/10/17 02:14:41;;;;;;;11.98;9.98;;;;;;;15.74;89.64;101269.19;3608894;39;20061;-61
2022/10/17 02:17:44;;;;;;;14.85;10.18;;;;;;;15.75;90.10;101277.19;3599744;39;20046;-61
2022/10/17 02:20:46;;;;;;;15.18;10.85;;;;;;;15.77;90.17;101268.97;3599215;39;20090;-59
2022/10/17 02:23:49;;;;;;;13.90;10.43;;;;;;;15.81;90.20;101269.59;3608548;39;20066;-59
2022/10/17 02:26:52;;;;;;;14.75;10.77;;;;;;;15.82;90.46;101271.31;3609170;39;20051;-61
2022/10/17 02:29:26;;;;;;;12.13;10.75;;;;;;;15.85;89.67;101277.34;3602634;39;20063;-61
2022/10/17 02:32:05;;;;;;;14.48;10.50;;;;;;;15.86;90.09;101265.56;3604398;39;20275;-60
2022/10/17 02:34:45;;;;;;;11.18;10.00;;;;;;;15.87;90.74;101274.53;3608255;39;20111;-61
2022/10/17 02:37:18;;;;;;;14.65;10.63;;;;;;;15.95;90.95;101282.94;3606076;39;20083;-61
2022/10/17 02:39:46;;;;;;;10.73;9.63;;;;;;;15.95;90.68;101277.50;3607654;39;20058;-61
2022/10/17 02:42:15;;;;;;;10.90;9.48;;;;;;;16.02;90.71;101282.38;3609736;39;20066;-61
2022/10/17 02:44:45;;;;;;;11.35;9.73;;;;;;;16.06;90.09;101274.00;3605523;39;20046;-60
2022/10/17 02:47:32;;;;;;;13.73;10.57;;;;;;;16.06;89.80;101282.97;3606839;39;20063;-61
2022/10/17 02:49:57;;;;;;;13.50;9.90;;;;;;;16.09;89.77;101281.88;3606690;39;20345;-61
2022/10/17 02:52:28;;;;;;;11.70;9.80;;;;;;;16.09;88.93;101276.47;3606550;39;20059;-61
2022/10/17 02:55:18;;;;;;;10.63;9.40;;;;;;;16.07;89.10;101275.72;3606200;39;20071;-60
2022/10/17 02:57:53;;;;;;;10.93;9.50;;;;;;;16.06;89.14;101282.13;3608263;39;20055;-61
2022/10/17 03:00:22;;;;;;;13.23;10.00;;;;;;;16.04;89.63;101281.38;3603000;39;20071;-61
2022/10/17 03:02:51;;;;;;;19.42;10.45;;;;;;;16.05;89.68;101266.81;3607315;39;20054;-58
2022/10/17 03:05:24;;;;;;;10.77;9.63;;;;;;;16.04;88.88;101281.38;3607027;39;20349;-61
2022/10/17 03:07:51;;;;;;;11.32;10.02;;;;;;;16.01;88.84;101275.19;3606328;39;20051;-60
2022/10/17 03:10:17;;;;;;;10.40;9.30;;;;;;;15.94;89.27;101254.97;3605470;39;20110;-60
2022/10/17 03:12:44;;;;;;;10.80;9.23;;;;;;;16.04;89.29;101276.81;3607158;39;20164;-61
2022/10/17 03:15:10;;;;;;;12.68;9.63;;;;;;;16.06;89.65;101284.84;3607680;39;20108;-60
2022/10/17 03:17:36;;;;;;;10.93;9.55;;;;;;;16.07;89.56;101273.00;3606782;39;20071;-60
2022/10/17 03:20:05;;;;;;;11.93;9.60;;;;;;;16.09;89.83;101271.91;3606388;39;20432;-60
2022/10/17 03:22:31;;;;;;;13.38;9.90;;;;;;;16.07;89.30;101270.28;3598437;39;20095;-61
2022/10/17 03:24:57;;;;;;;13.65;10.68;;;;;;;16.10;89.05;101275.47;3605226;39;20094;-60
2022/10/17 03:27:23;;;;;;;14.57;9.52;;;;;;;16.10;89.36;101273.63;3606501;39;20159;-60
2022/10/17 03:29:49;;;;;;;10.65;9.15;;;;;;;16.10;89.83;101281.75;3606049;39;20355;-60
2022/10/17 03:32:14;;;;;;;12.10;9.65;;;;;;;16.11;90.06;101279.91;3607248;39;20370;-61
2022/10/17 03:34:40;;;;;;;11.32;9.70;;;;;;;16.01;89.17;101266.19;3606405;39;20062;-60
2022/10/17 03:37:05;;;;;;;11.68;9.60;;;;;;;16.10;89.74;101276.34;3605097;39;20051;-61
2022/10/17 03:39:31;;;;;;;11.77;9.88;;;;;;;16.12;89.72;101281.66;3606025;39;20147;-61
2022/10/17 03:41:57;;;;;;;11.50;9.50;;;;;;;16.12;90.02;101282.50;3605644;39;20150;-60
2022/10/17 03:44:22;;;;;;;11.80;9.57;;;;;;;16.12;89.46;101278.94;3604104;39;20079;-61
2022/10/17 03:46:48;;;;;;;12.25;9.43;;;;;;;16.14;89.44;101268.81;3605371;39;20060;-61
2022/10/17 03:49:13;;;;;;;10.68;8.70;;;;;;;16.15;89.47;101257.88;3606217;39;20474;-61
2022/10/17 03:51:39;;;;;;;10.05;9.05;;;;;;;16.18;89.88;101254.03;3606294;39;20141;-60
2022/10/17 03:54:05;;;;;;;14.80;9.68;;;;;;;16.15;89.67;101257.88;3608568;39;20373;-61
2022/10/17 03:56:30;;;;;;;10.40;9.40;;;;;;;16.19;89.25;101259.34;3608304;39;20047;-61
2022/10/17 03:58:56;;;;;;;12.82;8.75;;;;;;;16.21;89.75;101261.94;3608835;39;20397;-61
2022/10/17 04:01:23;;;;;;;15.77;9.68;;;;;;;16.25;89.62;101274.28;3607091;39;20128;-61
2022/10/17 04:03:54;;;;;;;11.45;8.93;;;;;;;16.28;89.41;101276.75;3605315;39;20059;-60
2022/10/17 04:06:21;;;;;;;10.07;8.70;;;;;;;16.32;90.38;101277.38;3606963;39;20051;-61
2022/10/17 04:08:47;;;;;;;11.90;8.82;;;;;;;16.32;89.10;101280.94;3596476;39;20397;-60
2022/10/17 04:11:17;;;;;;;11.40;9.30;;;;;;;16.38;89.43;101294.03;3606618;39;20055;-61
2022/10/17 04:13:44;;;;;;;12.88;8.95;;;;;;;16.42;89.97;101284.66;3609610;39;20052;-61
2022/10/17 04:16:14;;;;;;;11.70;8.25;;;;;;;16.47;88.87;101279.72;3608786;39;20051;-60
2022/10/17 04:18:41;;;;;;;9.35;8.20;;;;;;;16.45;89.04;101284.41;3608868;39;20991;-61
2022/10/17 04:21:09;;;;;;;8.50;7.70;;;;;;;16.51;88.81;101291.19;3607934;39;20057;-61
2022/10/17 04:23:35;;;;;;;10.15;7.63;;;;;;;16.52;88.89;101282.06;3609801;39;20047;-60
2022/10/17 04:26:03;;;;;;;9.73;7.82;;;;;;;16.57;88.66;101306.16;3608234;39;20055;-61
2022/10/17 04:28:30;;;;;;;9.65;7.65;;;;;;;16.56;88.49;101302.56;3607636;39;20042;-61
2022/10/17 04:31:17;;;;;;;7.97;7.22;;;;;;;16.58;89.01;101302.44;3607967;39;20070;-61
2022/10/17 04:33:47;;;;;;;10.05;8.32;;;;;;;16.59;89.07;101298.75;3607677;39;20055;-61
2022/10/17 04:36:17;;;;;;;9.65;7.95;;;;;;;16.58;88.51;101310.56;3609126;39;20055;-61
2022/10/17 04:38:44;;;;;;;9.70;7.82;;;;;;;16.57;88.88;101300.72;3611668;39;20385;-61
2022/10/17 04:41:15;;;;;;;9.82;7.80;;;;;;;16.57;88.95;101314.28;3610888;39;20120;-60
2022/10/17 04:43:41;;;;;;;8.90;7.70;;;;;;;16.59;88.86;101328.59;3610010;39;20452;-61
2022/10/17 04:46:12;;;;;;;10.27;7.88;;;;;;;16.60;88.79;101323.03;3610797;39;20047;-59
2022/10/17 04:48:38;;;;;;;9.70;8.10;;;;;;;16.59;88.59;101315.91;3611459;39;20055;-58
2022/10/17 04:51:10;;;;;;;11.88;7.80;;;;;;;16.62;88.75;101325.66;3608305;39;20058;-60
2022/10/17 04:53:39;;;;;;;10.60;7.25;;;;;;;16.63;88.67;101328.22;3608982;39;20051;-59
2022/10/17 04:56:20;;;;;;;12.90;7.75;;;;;;;16.65;88.74;101336.25;3605739;39;20073;-60
2022/10/17 04:58:47;;;;;;;12.80;7.60;;;;;;;16.64;88.34;101334.50;3612581;39;20059;-59
2022/10/17 05:01:17;;;;;;;9.20;7.25;;;;;;;16.64;89.16;101340.81;3607370;39;20054;-60
2022/10/17 05:03:44;;;;;;;8.30;6.97;;;;;;;16.66;89.53;101346.13;3608771;39;20075;-60
2022/10/17 05:06:14;;;;;;;9.13;7.05;;;;;;;16.64;89.18;101342.66;3608618;39;20054;-60
2022/10/17 05:08:41;;;;;;;8.82;7.50;;;;;;;16.66;89.32;101348.84;3610219;39;20047;-60
2022/10/17 05:11:18;;;;;;;9.88;7.65;;;;;;;16.67;88.75;101342.41;3609714;39;20508;-59
2022/10/17 05:13:48;;;;;;;11.38;7.00;;;;;;;16.68;89.04;101325.13;3611064;39;20404;-60
2022/10/17 05:16:13;;;;;;;8.93;7.53;;;;;;;16.71;89.32;101335.75;3609917;39;20058;-60
2022/10/17 05:18:39;;;;;;;8.98;8.07;;;;;;;16.75;89.26;101330.97;3606836;39;20055;-59
2022/10/17 05:21:05;;;;;;;12.25;7.40;;;;;;;16.79;90.13;101338.75;3608501;39;20130;-60
2022/10/17 05:23:30;;;;;;;9.40;7.10;;;;;;;16.82;89.89;101343.09;3598868;39;20058;-60
2022/10/17 05:25:56;;;;;;;10.05;6.70;;;;;;;16.84;89.59;101347.41;3605915;39;20071;-59
2022/10/17 05:28:22;;;;;;;11.50;6.72;;;;;;;16.88;88.84;101351.59;3608185;39;20088;-60
2022/10/17 05:30:48;;;;;;;9.88;7.18;;;;;;;16.91;89.28;101354.09;3608891;39;20156;-60
2022/10/17 05:33:14;;;;;;;8.73;6.85;;;;;;;16.95;89.27;101351.97;3609046;39;20415;-59
2022/10/17 05:35:40;;;;;;;8.18;7.00;;;;;;;17.01;88.92;101347.91;3605341;39;20058;-60
2022/10/17 05:38:05;;;;;;;8.02;6.85;;;;;;;17.05;88.42;101362.97;3604855;39;20063;-59
2022/10/17 05:40:31;;;;;;;8.43;6.03;;;;;;;17.05;88.84;101360.25;3608064;39;20059;-59
2022/10/17 05:42:56;;;;;;;10.55;6.45;;;;;;;17.07;88.20;101355.56;3602430;39;20054;-60
2022/10/17 05:45:22;;;;;;;7.22;6.63;;;;;;;17.11;88.30;101365.19;3606381;39;20056;-59
2022/10/17 05:47:48;;;;;;;11.50;6.10;;;;;;;17.15;87.93;101363.94;3607241;39;20317;-59
2022/10/17 05:50:14;;;;;;;6.80;6.10;;;;;;;17.17;87.94;101370.97;3609783;39;20122;-58
2022/10/17 05:52:39;;;;;;;9.82;6.22;;;;;;;17.14;87.57;101367.66;3606722;39;20051;-60
2022/10/17 05:55:06;;;;;;;7.47;6.50;;;;;;;17.20;87.95;101369.03;3605812;39;20059;-60
2022/10/17 05:57:35;;;;;;;10.18;6.50;;;;;;;17.17;87.87;101360.13;3606560;39;20084;-60
2022/10/17 06:00:01;;;;;;;10.90;6.85;;;;;;;17.19;87.93;101370.88;3607596;39;20526;-60
2022/10/17 06:02:26;;;;;;;9.23;6.15;;;;;;;17.20;87.61;101369.88;3605339;39;20306;-60
2022/10/17 06:04:52;;;;;;;8.85;6.40;;;;;;;17.20;87.48;101367.16;3607193;39;20413;-60
2022/10/17 06:07:17;;;;;;;7.07;6.38;;;;;;;17.23;87.19;101372.34;3608958;39;20039;-60
2022/10/17 06:09:43;;;;;;;6.68;6.07;;;;;;;17.23;87.06;101371.50;3607987;39;20095;-60
2022/10/17 06:12:09;;;;;;;9.07;6.10;;;;;;;17.26;87.87;101372.09;3606758;39;20058;-59
2022/10/17 06:14:34;;;;;;;9.00;6.80;;;;;;;17.26;87.69;101369.38;3605603;39;20289;-60
2022/10/17 06:17:00;;;;;;;13.40;7.70;;;;;;;17.23;87.00;101368.78;3607537;39;20078;-60
2022/10/17 06:19:26;;;;;;;11.98;9.00;;;;;;;17.29;87.30;101373.72;3607453;39;20058;-59
2022/10/17 06:21:51;;;;;;;9.25;6.50;;;;;;;17.32;86.51;101381.63;3608762;39;21654;-58
2022/10/17 06:24:17;;;;;;;9.13;6.10;;;;;;;17.28;86.75;101372.81;3607066;39;20049;-60
2022/10/17 06:26:42;;;;;;;8.07;6.20;;;;;;;17.34;87.17;101376.91;3606711;39;20046;-60
2022/10/17 06:29:09;;;;;;;7.80;5.97;;;;;;;17.39;86.48;101380.97;3607503;39;20877;-60
2022/10/17 06:31:38;;;;;;;7.00;6.30;;;;;;;17.42;86.00;101385.31;3606556;39;20053;-61
2022/10/17 06:34:04;;;;;;;7.72;6.38;;;;;;;17.44;86.67;101382.44;3591190;39;20063;-59
2022/10/17 06:36:29;;;;;;;9.65;5.95;;;;;;;17.46;86.46;101385.91;3606560;39;20102;-60
2022/10/17 06:38:55;;;;;;;6.95;5.70;;;;;;;17.48;85.82;101381.22;3606992;39;20070;-59
2022/10/17 06:41:20;;;;;;;11.15;5.85;;;;;;;17.50;86.41;101387.38;3607042;39;20055;-59
2022/10/17 06:43:46;;;;;;;7.03;4.90;;;;;;;17.47;85.35;101385.78;3604821;39;20377;-60
2022/10/17 06:46:18;;;;;;;10.27;5.50;;;;;;;17.42;85.80;101373.56;3607226;39;20429;-59
2022/10/17 06:48:44;;;;;;;8.27;5.82;;;;;;;17.57;85.92;101399.47;3607159;39;21808;-60
2022/10/17 06:51:11;;;;;;;10.13;5.97;;;;;;;17.46;85.52;101385.91;3608859;39;20150;-59
2022/10/17 06:53:39;;;;;;;10.10;6.05;;;;;;;17.62;84.78;101402.69;3604121;39;20043;-59
2022/10/17 06:56:07;;;;;;;6.88;5.28;;;;;;;17.67;85.16;101405.03;3610922;39;20278;-60
2022/10/17 06:58:37;;;;;;;7.65;5.43;;;;;;;17.72;84.94;101397.34;3606623;39;20123;-59
2022/10/17 07:01:11;;;;;;;6.72;5.03;;;;;;;17.74;84.21;101390.78;3608007;39;20127;-60
2022/10/17 07:03:40;;;;;;;6.72;5.00;;;;;;;17.79;83.99;101394.03;3607811;39;20104;-57
2022/10/17 07:06:06;;;;;;;12.20;7.35;;;;;;;17.81;84.79;101399.34;3607623;39;20081;-60
2022/10/17 07:08:32;;;;;;;7.75;6.03;;;;;;;17.82;84.32;101403.78;3609965;39;20059;-60
2022/10/17 07:10:58;;;;;;;7.20;5.90;;;;;;;17.85;84.04;101417.97;3608504;39;20063;-60
2022/10/17 07:13:24;;;;;;;9.48;5.78;;;;;;;17.89;83.78;101409.56;3609925;39;20070;-60
2022/10/17 07:15:50;;;;;;;10.23;6.68;;;;;;;17.88;84.48;101402.41;3608397;39;20057;-60
2022/10/17 07:18:15;;;;;;;9.35;5.78;;;;;;;17.90;83.84;101400.44;3611205;39;20066;-60
2022/10/17 07:20:41;;;;;;;9.02;5.50;;;;;;;17.95;83.90;101409.94;3607622;39;20293;-59
2022/10/17 07:23:06;;;;;;;9.15;5.82;;;;;;;17.94;83.93;101424.53;3608328;39;20119;-60
2022/10/17 07:25:32;;;;;;;11.00;5.88;;;;;;;17.97;83.48;101426.13;3608845;39;20066;-59
2022/10/17 07:27:58;;;;;;;10.38;5.47;;;;;;;18.01;82.24;101424.88;3610503;39;20054;-60
2022/10/17 07:30:23;;;;;;;7.05;5.20;;;;;;;18.05;82.86;101431.81;3610551;39;20046;-60
2022/10/17 07:32:53;;;;;;;6.32;4.95;;;;;;;18.06;82.57;101439.81;3609264;39;20043;-60
2022/10/17 07:35:19;;;;;;;10.13;5.72;;;;;;;17.98;81.96;101446.88;3607672;39;20070;-60
2022/10/17 07:37:44;;;;;;;6.25;4.70;;;;;;;18.09;81.68;101487.69;3607716;39;20122;-60
2022/10/17 07:40:10;;;;;;;5.60;4.78;;;;;;;18.10;81.79;101513.88;3606340;39;20058;-60
2022/10/17 07:42:36;;;;;;;8.23;4.75;;;;;;;18.10;81.59;101519.34;3608031;39;20112;-60
2022/10/17 07:45:04;;;;;;;8.25;4.85;;;;;;;18.13;82.07;101529.97;3609709;39;20047;-60
2022/10/17 07:47:31;;;;;;;6.63;4.97;;;;;;;18.10;81.97;101541.09;3610009;39;20063;-60
2022/10/17 07:49:57;;;;;;;10.93;5.13;;;;;;;18.11;81.67;101561.91;3607406;39;20094;-58
2022/10/17 07:52:23;;;;;;;7.90;5.28;;;;;;;18.13;81.90;101570.78;3606954;39;20085;-60
2022/10/17 07:54:49;;;;;;;6.57;4.30;;;;;;;18.13;82.07;101565.34;3608680;39;20057;-60
2022/10/17 07:57:14;;;;;;;7.22;4.65;;;;;;;18.12;82.73;101569.06;3608124;39;20402;-60
2022/10/17 07:59:40;;;;;;;5.95;4.63;;;;;;;18.11;82.79;101578.22;3605412;39;20086;-59
2022/10/17 08:02:17;;;;;;;7.68;4.80;;;;;;;18.09;82.53;101569.31;3609253;39;20250;-60
2022/10/17 08:04:42;;;;;;;6.30;4.57;;;;;;;18.06;82.98;101575.00;3610622;39;20159;-60
2022/10/17 08:07:08;;;;;;;6.93;5.05;;;;;;;18.07;83.36;101566.69;3606531;39;20043;-59
2022/10/17 08:09:33;;;;;;;5.32;4.82;;;;;;;18.06;84.60;101564.13;3610602;39;20393;-60
2022/10/17 08:11:59;;;;;;;7.85;5.10;;;;;;;18.05;84.08;101556.97;3608718;39;20071;-58
2022/10/17 08:14:25;;;;;;;6.38;5.10;;;;;;;18.04;85.21;101576.97;3609627;39;20107;-62
2022/10/17 08:16:54;;;;;;;8.02;5.28;;;;;;;18.03;84.99;101591.56;3606282;39;20071;-60
2022/10/17 08:19:19;;;;;;;6.50;5.78;;;;;;;18.03;85.07;101614.19;3608485;39;20249;-60
2022/10/17 08:21:45;;;;;;;13.25;6.75;;;;;;;18.02;85.64;101628.81;3610111;39;20136;-60
2022/10/17 08:24:11;;;;;;;7.50;6.45;;;;;;;18.00;85.35;101640.78;3609096;39;20035;-59
2022/10/17 08:26:37;;;;;;;6.78;5.78;;;;;;;17.96;85.97;101633.88;3609971;39;20066;-60
2022/10/17 08:29:03;;;;;;;6.85;6.18;;;;;;;17.96;85.62;101626.56;3608253;39;20062;-60
2022/10/17 08:31:28;;;;;;;9.35;6.28;;;;;;;17.94;85.73;101628.53;3609292;39;20184;-59
2022/10/17 08:33:54;;;;;;;6.93;6.18;;;;;;;17.91;86.95;101636.09;3607275;39;20077;-60
2022/10/17 08:36:20;;;;;;;9.63;6.40;;;;;;;17.90;87.37;101634.38;3609595;39;20073;-60
2022/10/17 08:38:46;;;;;;;8.55;6.93;;;;;;;17.88;86.83;101622.72;3608236;39;20148;-59
2022/10/17 08:41:26;;;;;;;10.63;7.22;;;;;;;17.77;87.72;101619.03;3608745;39;20082;-59
2022/10/17 08:44:10;;;;;;;14.00;9.85;;;;;;;17.79;87.65;101636.09;3611258;39;20736;-60
2022/10/17 08:46:41;;;;;;;;;;;;;;;17.74;88.29;101635.53;3609614;39;20124;-58
2022/10/17 08:49:32;;;;;;;9.02;6.75;;;;;;;17.73;88.46;101614.78;3604831;39;19942;-60
2022/10/17 08:52:14;;;;;;;12.48;6.78;;;;;;;17.69;89.64;101607.84;3605855;39;20107;-59
2022/10/17 08:54:45;;;;;;;9.43;6.57;;;;;;;17.57;89.01;101585.22;3606672;39;20368;-60
2022/10/17 08:57:14;;;;;;;9.68;6.93;;;;;;;17.77;88.81;101621.75;3606496;39;20388;-58
2022/10/17 08:59:42;;;;;;;7.63;6.75;;;;;;;17.79;88.58;101619.78;3611002;39;20532;-59
2022/10/17 09:02:33;;;;;;;33.42;26.25;;;;;;;17.80;89.01;101620.63;3609352;39;20127;-60
2022/10/17 09:05:45;;;;;;;24.20;20.02;;;;;;;17.44;88.61;101572.72;3612533;39;20136;-60
2022/10/17 09:08:40;;;;;;;12.15;9.13;;;;;;;17.80;88.97;101640.53;3609912;39;20407;-60
2022/10/17 09:11:40;;;;;;;10.88;7.47;;;;;;;17.79;89.45;101644.25;3608370;39;20116;-60
2022/10/17 09:14:45;;;;;;;12.40;6.80;;;;;;;17.76;88.80;101674.38;3609070;39;20054;-60
2022/10/17 09:17:42;;;;;;;10.48;7.18;;;;;;;17.44;89.72;101638.81;3608434;39;20090;-60
2022/10/17 09:20:24;;;;;;;14.02;7.78;;;;;;;17.68;89.80;101712.16;3609588;39;20051;-61
2022/10/17 09:23:05;;;;;;;13.02;8.05;;;;;;;17.65;89.91;101690.66;3611015;39;20056;-60
2022/10/17 09:25:45;;;;;;;10.93;8.82;;;;;;;17.60;90.96;101682.88;3609313;39;20050;-60
2022/10/17 09:28:34;;;;;;;10.07;7.78;;;;;;;17.57;91.01;101638.72;3610733;39;20054;-61
2022/10/17 09:31:14;;;;;;;14.65;8.57;;;;;;;17.56;91.42;101593.50;3611388;39;20047;-61
2022/10/17 09:33:46;;;;;;;10.68;8.40;;;;;;;17.48;91.95;101576.94;3606260;39;20419;-61
2022/10/17 09:36:24;;;;;;;11.53;8.23;;;;;;;17.55;92.19;101589.91;3609817;39;20042;-61
2022/10/17 09:38:56;;;;;;;11.93;8.77;;;;;;;17.57;92.49;101598.81;3610171;39;20067;-60
2022/10/17 09:41:33;;;;;;;10.80;8.05;;;;;;;17.63;92.19;101627.34;3611198;39;20073;-59
2022/10/17 09:44:23;;;;;;;10.25;7.68;;;;;;;17.63;92.88;101646.38;3608555;39;20071;-60
2022/10/17 09:47:27;;;;;;;12.00;7.38;;;;;;;17.64;92.27;101646.28;3611971;39;20140;-60
2022/10/17 09:49:52;;;;;;;12.43;8.20;;;;;;;17.67;92.51;101653.34;3606470;39;20158;-58
2022/10/17 09:52:35;;;;;;;11.25;7.95;;;;;;;17.69;92.05;101640.47;3605354;39;20297;-60
2022/10/17 09:55:17;;;;;;;10.18;8.07;;;;;;;17.72;92.43;101634.78;3609338;39;20046;-61
2022/10/17 09:57:53;;;;;;;14.37;8.47;;;;;;;17.76;93.04;101627.25;3611685;39;20071;-61
2022/10/17 10:00:30;;;;;;;10.93;8.23;;;;;;;17.79;92.40;101627.03;3608089;39;20127;-60
2022/10/17 10:03:21;;;;;;;9.48;7.80;;;;;;;17.81;92.66;101628.66;3610755;39;20356;-61
2022/10/17 10:06:17;;;;;;;12.05;8.40;;;;;;;17.84;91.95;101628.41;3608538;39;20095;-61
2022/10/17 10:08:54;;;;;;;11.40;8.30;;;;;;;17.90;92.31;101635.22;3611033;39;20323;-60
2022/10/17 10:11:44;;;;;;;13.30;8.07;;;;;;;17.90;91.93;101640.66;3608102;39;20055;-59
2022/10/17 10:14:20;;;;;;;9.73;7.57;;;;;;;17.88;91.13;101656.22;3609859;39;20143;-60
2022/10/17 10:16:49;;;;;;;8.90;7.55;;;;;;;17.89;91.64;101654.38;3610444;39;20068;-58
2022/10/17 10:19:49;;;;;;;13.20;7.82;;;;;;;17.86;91.18;101650.06;3611210;39;20043;-60
2022/10/17 10:22:19;;;;;;;9.82;6.82;;;;;;;17.89;91.04;101673.41;3612188;39;20079;-58
2022/10/17 10:24:45;;;;;;;9.23;6.70;;;;;;;17.89;91.11;101687.91;3611382;39;20553;-61
2022/10/17 10:27:18;;;;;;;8.77;7.25;;;;;;;17.90;92.08;101692.34;3611723;39;20055;-61
2022/10/17 10:29:52;;;;;;;8.25;6.75;;;;;;;17.94;91.10;101695.69;3611362;39;20095;-60
2022/10/17 10:32:28;;;;;;;10.80;7.00;;;;;;;17.94;91.26;101685.66;3608919;39;20313;-59
2022/10/17 10:35:06;;;;;;;8.05;6.63;;;;;;;17.92;91.68;101679.50;3607533;39;20450;-59
2022/10/17 10:37:44;;;;;;;7.28;5.97;;;;;;;17.97;91.34;101701.75;3608392;39;20067;-58
2022/10/17 10:40:37;;;;;;;9.48;6.80;;;;;;;17.98;91.80;101708.06;3611386;39;20497;-60
2022/10/17 10:43:05;;;;;;;7.22;5.93;;;;;;;18.07;91.61;101729.97;3609987;39;20062;-59
2022/10/17 10:45:36;;;;;;;11.30;6.68;;;;;;;18.10;91.66;101745.19;3609960;39;20051;-60
2022/10/17 10:48:35;;;;;;;8.00;5.93;;;;;;;17.98;90.98;101736.16;3611727;39;20057;-60
2022/10/17 10:51:24;;;;;;;10.10;5.82;;;;;;;18.08;91.50;101752.63;3605085;39;20080;-59
2022/10/17 10:54:24;;;;;;;7.05;6.15;;;;;;;18.10;90.76;101756.94;3610618;39;20483;-59
2022/10/17 10:56:56;;;;;;;7.85;5.72;;;;;;;18.11;90.98;101752.38;3609736;39;20355;-60
2022/10/17 11:00:14;;;;;;;8.95;5.85;;;;;;;18.08;91.19;101741.72;3612691;39;20054;-59
2022/10/17 11:03:09;;;;;;;14.07;6.82;;;;;;;18.12;90.90;101748.66;3609231;39;20094;-59
2022/10/17 11:05:46;;;;;;;10.18;6.00;;;;;;;18.15;90.13;101753.84;3612575;39;20086;-60
2022/10/17 11:08:47;;;;;;;7.80;6.30;;;;;;;18.18;90.84;101759.06;3610033;39;20051;-60
2022/10/17 11:11:31;;;;;;;8.02;6.40;;;;;;;18.22;91.41;101754.25;3608908;39;20063;-60
2022/10/17 11:14:32;;;;;;;11.00;6.53;;;;;;;18.23;90.76;101759.53;3612758;39;20047;-60
2022/10/17 11:17:39;;;;;;;9.65;6.68;;;;;;;18.26;90.56;101761.16;3611720;39;20098;-59
2022/10/17 11:20:07;;;;;;;7.75;6.43;;;;;;;18.27;90.35;101771.94;3611664;39;20133;-59
2022/10/17 11:22:46;;;;;;;7.18;6.47;;;;;;;18.24;90.52;101769.47;3613308;39;20050;-60
2022/10/17 11:25:31;;;;;;;7.45;6.32;;;;;;;18.17;90.48;101762.75;3610828;39;20616;-60
2022/10/17 11:27:57;;;;;;;11.45;7.13;;;;;;;18.29;90.25;101788.13;3609121;39;20058;-60
2022/10/17 11:30:33;;;;;;;8.77;7.10;;;;;;;18.32;90.92;101794.19;3608909;39;20058;-60
2022/10/17 11:33:04;;;;;;;7.93;7.10;;;;;;;18.30;90.64;101792.63;3612815;39;20308;-60
2022/10/17 11:35:39;;;;;;;9.23;7.28;;;;;;;18.30;90.76;101800.78;3613600;39;20051;-60
2022/10/17 11:38:35;;;;;;;8.43;7.63;;;;;;;18.28;90.51;101800.03;3613671;39;20116;-60
2022/10/17 11:41:04;;;;;;;8.40;7.28;;;;;;;18.28;90.12;101792.72;3609292;39;20409;-60
2022/10/17 11:43:47;;;;;;;8.82;7.82;;;;;;;18.29;91.10;101799.88;3611711;39;20051;-60
2022/10/17 11:46:26;;;;;;;9.68;8.40;;;;;;;18.30;90.56;101798.91;3610919;39;20353;-59
2022/10/17 11:49:13;;;;;;;10.25;8.35;;;;;;;18.34;91.24;101802.25;3609057;39;20074;-59
2022/10/17 11:52:27;;;;;;;9.70;8.65;;;;;;;18.35;91.66;101811.28;3613053;39;20047;-60